createdAt,value
2022-12-25T00:01:51.391Z,-9.95
2022-12-25T00:04:55.779Z,-10.06
2022-12-25T00:08:00.337Z,-9.99
2022-12-25T00:11:11.127Z,-10.24
2022-12-25T00:14:15.711Z,-10.29
2022-12-25T00:17:20.200Z,-9.86
2022-12-25T00:20:24.760Z,-9.64
2022-12-25T00:23:29.951Z,-9.05
2022-12-25T00:26:34.576Z,-9.12
2022-12-25T00:29:39.141Z,-8.52
2022-12-25T00:32:43.570Z,-8.49
2022-12-25T00:35:59.854Z,-7.86
2022-12-25T00:39:05.272Z,-7.44
2022-12-25T00:42:22.679Z,-6.96
2022-12-25T00:45:27.495Z,-6.52
2022-12-25T00:48:33.606Z,-6.46
2022-12-25T00:51:38.866Z,-6.38
2022-12-25T00:54:43.337Z,-5.92
2022-12-25T00:57:47.588Z,-5.40
2022-12-25T01:00:52.151Z,-5.58
2022-12-25T01:03:56.995Z,-5.11
2022-12-25T01:07:01.541Z,-5.80
2022-12-25T01:10:25.266Z,-5.75
2022-12-25T01:13:35.411Z,-6.44
2022-12-25T01:16:40.378Z,-6.62
2022-12-25T01:19:44.827Z,-7.30
2022-12-25T01:22:49.415Z,-7.96
2022-12-25T01:25:53.880Z,-8.15
2022-12-25T01:28:58.351Z,-8.15
2022-12-25T01:32:03.712Z,-8.24
2022-12-25T01:35:08.693Z,-8.39
2022-12-25T01:38:14.061Z,-8.33
2022-12-25T01:41:21.490Z,-8.23
2022-12-25T01:44:39.063Z,-7.62
2022-12-25T01:47:46.230Z,-7.78
2022-12-25T01:50:59.036Z,-6.93
2022-12-25T01:54:09.709Z,-6.71
2022-12-25T01:57:20.398Z,-7.20
2022-12-25T02:00:24.910Z,-7.09
2022-12-25T02:03:29.605Z,-7.08
2022-12-25T02:06:36.645Z,-6.74
2022-12-25T02:09:41.439Z,-6.58
2022-12-25T02:12:47.024Z,-6.56
2022-12-25T02:16:06.031Z,-6.11
2022-12-25T02:19:33.663Z,-5.89
2022-12-25T02:22:56.443Z,-6.61
2022-12-25T02:26:25.427Z,-7.33
2022-12-25T02:30:02.044Z,-7.24
2022-12-25T02:33:37.712Z,-6.54
2022-12-25T02:36:42.198Z,-6.23
2022-12-25T02:39:58.877Z,-6.56
2022-12-25T02:43:24.270Z,-6.50
2022-12-25T02:46:51.595Z,-6.07
2022-12-25T02:50:16.318Z,-6.48
2022-12-25T02:53:41.316Z,-6.16
2022-12-25T02:57:07.710Z,-5.89
2022-12-25T03:00:33.201Z,-6.24
2022-12-25T03:04:00.630Z,-6.37
2022-12-25T03:07:07.894Z,-6.61
2022-12-25T03:10:34.708Z,-6.14
2022-12-25T03:13:44.437Z,-6.34
2022-12-25T03:16:56.142Z,-6.72
2022-12-25T03:20:20.111Z,-6.52
2022-12-25T03:23:52.743Z,-6.36
2022-12-25T03:26:59.088Z,-6.92
2022-12-25T03:30:23.695Z,-6.59
2022-12-25T03:34:11.136Z,-6.20
2022-12-25T03:37:44.997Z,-6.84
2022-12-25T03:41:42.907Z,-7.20
2022-12-25T03:45:24.823Z,-6.71
2022-12-25T03:48:50.416Z,-6.91
2022-12-25T03:52:17.140Z,-7.13
2022-12-25T03:55:41.945Z,-7.34
2022-12-25T03:59:23.214Z,-6.66
2022-12-25T04:02:46.511Z,-6.30
2022-12-25T04:06:09.558Z,-6.32
2022-12-25T04:09:32.516Z,-7.18
2022-12-25T04:12:55.425Z,-7.63
2022-12-25T04:16:18.464Z,-7.42
2022-12-25T04:19:41.068Z,-7.47
2022-12-25T04:23:04.252Z,-7.60
2022-12-25T04:26:27.143Z,-7.93
2022-12-25T04:29:49.961Z,-7.52
2022-12-25T04:33:18.274Z,-7.11
2022-12-25T04:36:22.950Z,-7.66
2022-12-25T04:39:27.295Z,-7.46
2022-12-25T04:42:32.115Z,-7.56
2022-12-25T04:45:36.457Z,-7.18
2022-12-25T04:48:40.909Z,-7.19
2022-12-25T04:51:45.456Z,-7.55
2022-12-25T04:54:49.962Z,-7.05
2022-12-25T04:57:54.523Z,-6.77
2022-12-25T05:01:04.486Z,-6.94
2022-12-25T05:04:08.962Z,-6.87
2022-12-25T05:07:13.535Z,-7.23
2022-12-25T05:10:18.129Z,-6.45
2022-12-25T05:13:22.719Z,-6.60
2022-12-25T05:16:27.463Z,-6.43
2022-12-25T05:19:32.593Z,-6.26
2022-12-25T05:22:36.908Z,-6.60
2022-12-25T05:25:41.874Z,-6.84
2022-12-25T05:28:47.068Z,-6.47
2022-12-25T05:31:51.669Z,-6.70
2022-12-25T05:34:56.478Z,-6.79
2022-12-25T05:38:01.108Z,-7.24
2022-12-25T05:41:06.182Z,-7.39
2022-12-25T05:44:10.856Z,-7.66
2022-12-25T05:47:15.481Z,-7.49
2022-12-25T05:50:20.033Z,-7.00
2022-12-25T05:53:24.628Z,-7.77
2022-12-25T05:56:29.236Z,-8.00
2022-12-25T05:59:34.753Z,-8.01
2022-12-25T06:02:39.755Z,-8.36
2022-12-25T06:05:44.412Z,-8.18
2022-12-25T06:08:49.269Z,-7.95
2022-12-25T06:11:53.846Z,-7.58
2022-12-25T06:14:58.499Z,-8.16
2022-12-25T06:18:03.480Z,-8.12
2022-12-25T06:21:14.197Z,-8.06
2022-12-25T06:24:21.562Z,-8.44
2022-12-25T06:27:27.169Z,-8.32
2022-12-25T06:30:32.769Z,-8.02
2022-12-25T06:33:37.899Z,-8.19
2022-12-25T06:36:42.412Z,-8.56
2022-12-25T06:39:48.033Z,-8.04
2022-12-25T06:42:53.752Z,-7.88
2022-12-25T06:45:58.225Z,-8.61
2022-12-25T06:49:03.077Z,-8.38
2022-12-25T06:52:07.671Z,-8.43
2022-12-25T06:55:12.164Z,-8.39
2022-12-25T06:58:16.660Z,-8.27
2022-12-25T07:01:22.972Z,-8.79
2022-12-25T07:04:43.076Z,-8.43
2022-12-25T07:07:47.569Z,-8.85
2022-12-25T07:10:52.735Z,-8.77
2022-12-25T07:13:57.173Z,-8.66
2022-12-25T07:17:01.770Z,-8.51
2022-12-25T07:20:07.776Z,-8.80
2022-12-25T07:23:12.254Z,-8.97
2022-12-25T07:26:18.270Z,-9.04
2022-12-25T07:29:23.023Z,-8.75
2022-12-25T07:32:27.599Z,-9.12
2022-12-25T07:35:32.133Z,-9.37
2022-12-25T07:38:36.824Z,-9.45
2022-12-25T07:41:42.739Z,-9.28
2022-12-25T07:44:53.236Z,-9.27
2022-12-25T07:48:02.707Z,-9.79
2022-12-25T07:51:13.801Z,-9.70
2022-12-25T07:54:18.544Z,-9.83
2022-12-25T07:57:22.990Z,-9.71
2022-12-25T08:00:30.695Z,-9.84
2022-12-25T08:03:36.708Z,-10.96
2022-12-25T08:06:41.413Z,-9.79
2022-12-25T08:09:45.866Z,-9.80
2022-12-25T08:12:50.469Z,-9.92
2022-12-25T08:16:02.475Z,-9.89
2022-12-25T08:19:06.847Z,-9.69
2022-12-25T08:22:11.309Z,-9.69
2022-12-25T08:25:16.747Z,-9.93
2022-12-25T08:28:21.046Z,-9.83
2022-12-25T08:31:29.354Z,-9.76
2022-12-25T08:34:33.932Z,-9.65
2022-12-25T08:37:38.542Z,-9.95
2022-12-25T08:40:43.332Z,-9.82
2022-12-25T08:43:47.723Z,-9.73
2022-12-25T08:46:52.265Z,-9.63
2022-12-25T08:49:56.685Z,-9.77
2022-12-25T08:53:01.697Z,-9.84
2022-12-25T08:56:08.522Z,-9.85
2022-12-25T08:59:13.077Z,-10.00
2022-12-25T09:02:19.230Z,-9.91
2022-12-25T09:05:26.032Z,-9.64
2022-12-25T09:08:32.265Z,-9.78
2022-12-25T09:11:36.844Z,-9.79
2022-12-25T09:14:41.385Z,-9.49
2022-12-25T09:17:46.380Z,-9.61
2022-12-25T09:21:16.785Z,-9.69
2022-12-25T09:24:21.794Z,-9.84
2022-12-25T09:27:26.508Z,-9.90
2022-12-25T09:30:31.065Z,-9.81
2022-12-25T09:33:36.472Z,-10.05
2022-12-25T09:36:40.970Z,-10.13
2022-12-25T09:39:46.568Z,-10.29
2022-12-25T09:42:54.670Z,-10.10
2022-12-25T09:46:03.559Z,-9.91
2022-12-25T09:49:17.513Z,-10.14
2022-12-25T09:52:29.769Z,-10.10
2022-12-25T09:55:41.980Z,-9.99
2022-12-25T09:58:46.901Z,-10.57
2022-12-25T10:02:38.058Z,-10.19
2022-12-25T10:05:56.346Z,-10.24
2022-12-25T10:09:17.479Z,-10.30
2022-12-25T10:12:41.627Z,-10.40
2022-12-25T10:16:10.368Z,-10.33
2022-12-25T10:19:41.672Z,-10.05
2022-12-25T10:22:52.834Z,-9.95
2022-12-25T10:25:58.117Z,-10.16
2022-12-25T10:29:11.433Z,-10.59
2022-12-25T10:32:16.239Z,-10.48
2022-12-25T10:35:23.769Z,-10.34
2022-12-25T10:38:28.047Z,-10.33
2022-12-25T10:42:04.433Z,-10.27
2022-12-25T10:45:11.089Z,-10.51
2022-12-25T10:48:30.687Z,-10.35
2022-12-25T10:51:37.040Z,-10.09
2022-12-25T10:54:41.709Z,-10.10
2022-12-25T10:57:47.597Z,-9.98
2022-12-25T11:00:59.905Z,-9.88
2022-12-25T11:04:04.461Z,-10.53
2022-12-25T11:07:15.713Z,-10.50
2022-12-25T11:10:25.676Z,-10.29
2022-12-25T11:13:32.109Z,-10.38
2022-12-25T11:16:42.349Z,-10.28
2022-12-25T11:19:54.785Z,-10.33
2022-12-25T11:22:59.261Z,-10.08
2022-12-25T11:26:09.286Z,-10.24
2022-12-25T11:29:32.749Z,-10.57
2022-12-25T11:32:48.930Z,-11.09
2022-12-25T11:36:00.501Z,-11.59
2022-12-25T11:39:26.330Z,-11.61
2022-12-25T11:42:41.230Z,-11.88
2022-12-25T11:46:07.095Z,-11.92
2022-12-25T11:49:20.210Z,-11.92
2022-12-25T11:52:29.605Z,-11.73
2022-12-25T11:55:47.220Z,-11.57
2022-12-25T11:58:54.936Z,-11.82
2022-12-25T12:02:19.643Z,-11.72
2022-12-25T12:05:44.103Z,-11.45
2022-12-25T12:08:56.607Z,-11.24
2022-12-25T12:12:30.348Z,-11.24
2022-12-25T12:15:45.119Z,-11.28
2022-12-25T12:18:50.804Z,-11.24
2022-12-25T12:21:59.602Z,-11.31
2022-12-25T12:25:09.363Z,-11.13
2022-12-25T12:28:22.649Z,-11.32
2022-12-25T12:31:37.805Z,-11.14
2022-12-25T12:34:50.972Z,-11.11
2022-12-25T12:37:58.837Z,-11.18
2022-12-25T12:41:09.220Z,-11.25
2022-12-25T12:44:16.931Z,-11.30
2022-12-25T12:47:42.635Z,-11.14
2022-12-25T12:50:48.463Z,-11.12
2022-12-25T12:54:05.035Z,-11.08
2022-12-25T12:57:26.147Z,-11.27
2022-12-25T13:00:49.708Z,-11.56
2022-12-25T13:04:07.142Z,-11.71
2022-12-25T13:07:33.153Z,-11.55
2022-12-25T13:10:47.069Z,-11.62
2022-12-25T13:13:53.837Z,-11.81
2022-12-25T13:16:58.378Z,-11.79
2022-12-25T13:20:03.244Z,-11.75
2022-12-25T13:23:38.358Z,-11.89
2022-12-25T13:26:42.964Z,-11.63
2022-12-25T13:29:47.543Z,-11.64
2022-12-25T13:32:52.343Z,-11.80
2022-12-25T13:35:57.140Z,-11.37
2022-12-25T13:39:02.230Z,-11.72
2022-12-25T13:42:10.761Z,-11.79
2022-12-25T13:45:21.844Z,-11.98
2022-12-25T13:48:26.865Z,-12.55
2022-12-25T13:51:31.633Z,-12.57
2022-12-25T13:54:36.487Z,-12.44
2022-12-25T13:58:08.446Z,-12.74
2022-12-25T14:01:17.990Z,-12.68
2022-12-25T14:04:25.547Z,-12.55
2022-12-25T14:07:30.760Z,-12.65
2022-12-25T14:10:39.373Z,-12.10
2022-12-25T14:13:46.621Z,-11.87
2022-12-25T14:16:54.468Z,-11.66
2022-12-25T14:20:07.838Z,-11.82
2022-12-25T14:23:17.292Z,-11.48
2022-12-25T14:26:25.064Z,-11.54
2022-12-25T14:29:38.831Z,-11.80
2022-12-25T14:32:47.317Z,-11.58
2022-12-25T14:35:53.621Z,-11.77
2022-12-25T14:39:07.504Z,-12.15
2022-12-25T14:42:43.070Z,-11.88
2022-12-25T14:45:56.894Z,-12.09
2022-12-25T14:49:07.965Z,-12.03
2022-12-25T14:52:20.020Z,-12.16
2022-12-25T14:55:28.423Z,-11.96
2022-12-25T14:58:42.997Z,-11.74
2022-12-25T15:01:53.511Z,-11.66
2022-12-25T15:04:58.169Z,-11.57
2022-12-25T15:08:14.667Z,-11.48
2022-12-25T15:11:19.107Z,-11.61
2022-12-25T15:14:24.976Z,-11.72
2022-12-25T15:17:38.954Z,-12.00
2022-12-25T15:20:43.628Z,-11.57
2022-12-25T15:23:48.694Z,-11.43
2022-12-25T15:26:56.188Z,-11.90
2022-12-25T15:30:09.736Z,-11.48
2022-12-25T15:33:17.596Z,-11.31
2022-12-25T15:36:23.219Z,-11.35
2022-12-25T15:39:27.839Z,-11.35
2022-12-25T15:42:33.201Z,-11.35
2022-12-25T15:45:39.054Z,-11.30
2022-12-25T15:48:43.546Z,-11.88
2022-12-25T15:51:48.358Z,-11.71
2022-12-25T15:54:55.085Z,-11.60
2022-12-25T15:58:00.032Z,-11.77
2022-12-25T16:01:05.068Z,-11.95
2022-12-25T16:04:09.809Z,-12.09
2022-12-25T16:07:20.471Z,-11.56
2022-12-25T16:10:25.151Z,-11.56
2022-12-25T16:13:29.613Z,-11.40
2022-12-25T16:16:34.675Z,-11.70
2022-12-25T16:19:39.420Z,-11.70
2022-12-25T16:22:44.360Z,-12.01
2022-12-25T16:25:49.325Z,-11.70
2022-12-25T16:28:53.812Z,-11.67
2022-12-25T16:31:58.307Z,-11.29
2022-12-25T16:35:03.071Z,-11.55
2022-12-25T16:38:07.638Z,-11.69
2022-12-25T16:41:14.750Z,-11.81
2022-12-25T16:44:19.360Z,-11.60
2022-12-25T16:47:24.074Z,-12.13
2022-12-25T16:50:28.467Z,-12.37
2022-12-25T16:53:33.436Z,-12.27
2022-12-25T16:56:38.114Z,-12.38
2022-12-25T16:59:42.792Z,-12.32
2022-12-25T17:02:47.530Z,-12.31
2022-12-25T17:05:52.128Z,-12.32
2022-12-25T17:08:59.992Z,-12.39
2022-12-25T17:12:06.009Z,-12.35
2022-12-25T17:15:11.032Z,-12.27
2022-12-25T17:18:15.506Z,-12.19
2022-12-25T17:21:19.875Z,-12.07
2022-12-25T17:24:24.499Z,-12.04
2022-12-25T17:27:29.064Z,-11.90
2022-12-25T17:30:34.287Z,-11.91
2022-12-25T17:33:44.001Z,-12.12
2022-12-25T17:36:49.198Z,-12.05
2022-12-25T17:39:53.559Z,-12.08
2022-12-25T17:42:58.190Z,-12.06
2022-12-25T17:46:08.043Z,-11.78
2022-12-25T17:49:16.914Z,-11.93
2022-12-25T17:52:21.273Z,-12.09
2022-12-25T17:55:25.807Z,-12.27
2022-12-25T17:58:30.549Z,-12.24
2022-12-25T18:01:36.206Z,-12.01
2022-12-25T18:04:41.038Z,-11.63
2022-12-25T18:07:46.035Z,-11.43
2022-12-25T18:10:50.573Z,-11.42
2022-12-25T18:13:55.861Z,-11.18
2022-12-25T18:17:00.514Z,-11.33
2022-12-25T18:20:07.168Z,-11.80
2022-12-25T18:23:12.151Z,-11.38
2022-12-25T18:26:16.805Z,-11.20
2022-12-25T18:29:21.475Z,-11.22
2022-12-25T18:32:28.213Z,-11.45
2022-12-25T18:35:33.024Z,-11.64
2022-12-25T18:38:37.746Z,-11.28
2022-12-25T18:42:02.360Z,-11.47
2022-12-25T18:45:13.007Z,-11.65
2022-12-25T18:48:17.748Z,-11.80
2022-12-25T18:51:22.557Z,-12.15
2022-12-25T18:54:27.123Z,-11.82
2022-12-25T18:57:33.475Z,-11.59
2022-12-25T19:00:37.726Z,-11.57
2022-12-25T19:03:42.543Z,-11.54
2022-12-25T19:06:47.250Z,-11.25
2022-12-25T19:09:52.503Z,-11.35
2022-12-25T19:12:57.093Z,-11.54
2022-12-25T19:16:02.860Z,-11.75
2022-12-25T19:19:07.459Z,-11.54
2022-12-25T19:22:12.565Z,-11.43
2022-12-25T19:25:19.148Z,-11.06
2022-12-25T19:28:25.837Z,-11.05
2022-12-25T19:31:30.425Z,-11.52
2022-12-25T19:34:34.991Z,-11.48
2022-12-25T19:37:39.432Z,-11.35
2022-12-25T19:41:01.067Z,-11.18
2022-12-25T19:44:08.253Z,-11.37
2022-12-25T19:47:13.040Z,-11.64
2022-12-25T19:50:17.638Z,-11.74
2022-12-25T19:53:24.612Z,-11.65
2022-12-25T19:56:30.335Z,-11.65
2022-12-25T19:59:35.075Z,-11.80
2022-12-25T20:02:39.588Z,-11.80
2022-12-25T20:05:51.802Z,-11.89
2022-12-25T20:08:58.919Z,-11.83
2022-12-25T20:12:03.559Z,-11.90
2022-12-25T20:15:08.864Z,-11.68
2022-12-25T20:18:13.408Z,-11.88
2022-12-25T20:21:20.672Z,-11.74
2022-12-25T20:24:25.876Z,-11.57
2022-12-25T20:27:30.416Z,-11.56
2022-12-25T20:30:34.793Z,-11.61
2022-12-25T20:33:39.511Z,-11.57
2022-12-25T20:36:46.077Z,-11.81
2022-12-25T20:39:50.693Z,-11.30
2022-12-25T20:42:55.225Z,-11.61
2022-12-25T20:46:00.312Z,-11.37
2022-12-25T20:49:05.506Z,-11.20
2022-12-25T20:52:10.169Z,-11.30
2022-12-25T20:55:15.029Z,-11.11
2022-12-25T20:58:19.573Z,-11.35
2022-12-25T21:01:24.777Z,-11.12
2022-12-25T21:04:29.387Z,-11.09
2022-12-25T21:07:34.185Z,-11.10
2022-12-25T21:10:38.528Z,-11.26
2022-12-25T21:13:46.334Z,-11.31
2022-12-25T21:16:51.903Z,-11.22
2022-12-25T21:19:56.279Z,-11.35
2022-12-25T21:23:00.767Z,-11.37
2022-12-25T21:26:33.783Z,-11.34
2022-12-25T21:29:38.359Z,-11.59
2022-12-25T21:33:01.300Z,-11.22
2022-12-25T21:36:12.026Z,-11.63
2022-12-25T21:39:17.073Z,-12.04
2022-12-25T21:42:21.681Z,-11.96
2022-12-25T21:45:26.333Z,-11.74
2022-12-25T21:48:31.426Z,-11.46
2022-12-25T21:51:54.301Z,-11.78
2022-12-25T21:54:58.725Z,-11.63
2022-12-25T21:58:03.988Z,-11.89
2022-12-25T22:01:08.697Z,-11.83
2022-12-25T22:04:14.681Z,-11.93
2022-12-25T22:07:19.273Z,-11.72
2022-12-25T22:10:23.796Z,-11.53
2022-12-25T22:13:46.407Z,-11.18
2022-12-25T22:17:09.591Z,-11.53
2022-12-25T22:20:20.473Z,-11.47
2022-12-25T22:23:25.148Z,-11.56
2022-12-25T22:26:29.806Z,-11.61
2022-12-25T22:29:34.923Z,-11.43
2022-12-25T22:32:39.508Z,-11.49
2022-12-25T22:35:43.897Z,-11.69
2022-12-25T22:38:48.218Z,-11.68
2022-12-25T22:41:52.655Z,-11.78
2022-12-25T22:44:57.185Z,-11.74
2022-12-25T22:48:01.693Z,-11.43
2022-12-25T22:51:06.320Z,-11.77
2022-12-25T22:54:13.957Z,-11.74
2022-12-25T22:57:18.206Z,-11.48
2022-12-25T23:00:24.113Z,-11.41
2022-12-25T23:03:29.041Z,-11.57
2022-12-25T23:06:33.669Z,-11.27
2022-12-25T23:09:38.271Z,-10.99
2022-12-25T23:13:01.346Z,-10.79
2022-12-25T23:16:06.926Z,-10.50
2022-12-25T23:19:31.558Z,-10.41
2022-12-25T23:22:54.837Z,-10.58
2022-12-25T23:26:11.428Z,-10.56
2022-12-25T23:29:34.194Z,-10.50
2022-12-25T23:32:39.418Z,-10.10
2022-12-25T23:35:43.950Z,-9.93
2022-12-25T23:38:48.511Z,-9.76
2022-12-25T23:41:53.091Z,-10.24
2022-12-25T23:44:57.603Z,-10.13
2022-12-25T23:48:02.295Z,-10.14
2022-12-25T23:51:10.252Z,-9.57
2022-12-25T23:54:18.523Z,-9.62
2022-12-25T23:57:22.970Z,-9.71
